Time;durP1;ratioP1;P1;durP2;ratioP2;P2;SDS_P1;SDS_P2;PMS_P1;PMS_P2;Temp;Humidity;BMP_temperature;BMP_pressure;BME280_temperature;BME280_humidity;BME280_pressure;Samples;Min_cycle;Max_cycle;Signal;HPM_P1;HPM_P2
2023/01/05 00:01:06;;;;;;;33.50;20.23;;;;;;;5.68;100.00;100792.50;1496015;87;20412;-81
2023/01/05 00:03:34;;;;;;;31.57;21.37;;;;;;;5.69;100.00;100789.75;1489431;86;22224;-81
2023/01/05 00:06:04;;;;;;;27.00;18.57;;;;;;;5.70;100.00;100790.58;1498176;86;21617;-81
2023/01/05 00:08:30;;;;;;;28.87;19.10;;;;;;;5.70;100.00;100777.00;1492178;86;21397;-81
2023/01/05 00:24:40;;;;;;;24.07;17.27;;;;;;;5.76;100.00;100762.13;1494374;86;21390;-82
2023/01/05 00:27:06;;;;;;;25.83;17.87;;;;;;;5.79;100.00;100756.66;1500508;86;21492;-82
2023/01/05 00:29:32;;;;;;;28.93;19.83;;;;;;;5.76;100.00;100747.67;1500168;87;22291;-82
2023/01/05 00:31:59;;;;;;;24.47;16.50;;;;;;;5.75;100.00;100743.83;1498251;86;21338;-83
2023/01/05 00:34:25;;;;;;;25.40;17.03;;;;;;;5.77;100.00;100754.59;1489238;86;21411;-82
2023/01/05 00:36:51;;;;;;;28.70;18.77;;;;;;;5.76;100.00;100744.22;1492696;86;21417;-83
2023/01/05 00:39:17;;;;;;;32.80;20.30;;;;;;;5.74;100.00;100743.00;1505961;85;21888;-83
2023/01/05 00:41:43;;;;;;;25.23;16.77;;;;;;;5.75;100.00;100742.03;1526070;85;21381;-80
2023/01/05 00:44:10;;;;;;;25.83;16.77;;;;;;;5.77;100.00;100729.64;1517577;85;21570;-81
2023/01/05 00:46:36;;;;;;;25.90;17.20;;;;;;;5.73;100.00;100722.11;1520068;85;21558;-82
2023/01/05 00:49:02;;;;;;;27.10;16.87;;;;;;;5.70;100.00;100731.05;1522764;85;21374;-81
2023/01/05 00:51:28;;;;;;;27.07;19.77;;;;;;;5.66;100.00;100730.40;1504448;85;21425;-84
2023/01/05 00:53:54;;;;;;;28.97;18.30;;;;;;;5.67;100.00;100720.76;1516130;85;21648;-83
2023/01/05 00:56:20;;;;;;;24.13;16.63;;;;;;;5.67;100.00;100719.45;1516279;85;21308;-81
2023/01/05 00:58:46;;;;;;;27.53;17.27;;;;;;;5.65;100.00;100720.86;1514010;85;21337;-83
2023/01/05 01:01:13;;;;;;;24.20;16.63;;;;;;;5.63;100.00;100710.92;1526009;85;21374;-83
2023/01/05 01:03:39;;;;;;;25.77;16.53;;;;;;;5.64;100.00;100703.91;1521805;85;21492;-84
2023/01/05 01:06:05;;;;;;;24.33;17.33;;;;;;;5.65;100.00;100699.02;1521451;85;21382;-83
2023/01/05 01:08:32;;;;;;;24.83;15.03;;;;;;;5.64;100.00;100697.34;1525672;85;21352;-85
2023/01/05 01:11:05;;;;;;;28.13;17.57;;;;;;;5.65;100.00;100691.13;1524566;85;21352;-83
2023/01/05 01:13:31;;;;;;;24.70;17.73;;;;;;;5.60;100.00;100686.68;1527538;85;21300;-82
2023/01/05 01:15:57;;;;;;;21.93;15.17;;;;;;;5.65;100.00;100687.20;1518833;84;22643;-80
2023/01/05 01:18:23;;;;;;;25.67;17.83;;;;;;;5.68;100.00;100684.34;1519917;85;21388;-82
2023/01/05 01:20:49;;;;;;;26.27;18.20;;;;;;;5.69;100.00;100687.33;1521739;85;21360;-79
2023/01/05 01:23:16;;;;;;;29.50;18.20;;;;;;;5.69;100.00;100679.45;1522777;85;22247;-81
2023/01/05 01:25:42;;;;;;;23.00;16.53;;;;;;;5.68;100.00;100672.53;1518114;85;21388;-81
2023/01/05 01:28:08;;;;;;;26.80;17.40;;;;;;;5.68;100.00;100675.16;1521767;85;21345;-83
2023/01/05 01:30:38;;;;;;;23.60;17.37;;;;;;;5.70;100.00;100675.89;1531581;85;21292;-83
2023/01/05 01:33:05;;;;;;;27.03;18.03;;;;;;;5.68;100.00;100665.97;1513189;85;21544;-82
2023/01/05 01:35:31;;;;;;;30.50;17.50;;;;;;;5.67;100.00;100665.61;1513257;85;21374;-83
2023/01/05 01:37:57;;;;;;;26.03;17.97;;;;;;;5.70;100.00;100674.58;1494680;87;21523;-86
2023/01/05 01:40:23;;;;;;;26.40;18.00;;;;;;;5.68;100.00;100665.13;1486705;86;21397;-82
2023/01/05 01:42:50;;;;;;;27.97;16.77;;;;;;;5.63;100.00;100653.16;1495149;87;21464;-84
2023/01/05 01:45:23;;;;;;;30.40;20.23;;;;;;;5.63;100.00;100641.81;1500244;86;21434;-81
2023/01/05 01:47:59;;;;;;;24.67;17.73;;;;;;;5.60;100.00;100636.79;1495620;86;21323;-81
2023/01/05 01:50:49;;;;;;;25.57;15.23;;;;;;;5.58;100.00;100621.16;1499292;86;21323;-82
2023/01/05 01:53:37;;;;;;;30.93;17.60;;;;;;;5.60;100.00;100627.59;1494030;86;21522;-82
2023/01/05 01:56:06;;;;;;;26.93;18.17;;;;;;;5.57;100.00;100620.78;1497041;86;21360;-82
2023/01/05 01:58:32;;;;;;;21.47;16.30;;;;;;;5.56;100.00;100605.16;1500075;86;21559;-81
2023/01/05 02:01:03;;;;;;;25.83;16.17;;;;;;;5.58;100.00;100595.36;1488054;87;21465;-81
2023/01/05 02:03:29;;;;;;;26.77;16.30;;;;;;;5.57;100.00;100584.50;1499490;86;22343;-81
2023/01/05 02:05:57;;;;;;;25.50;17.20;;;;;;;5.56;100.00;100556.10;1503101;86;21523;-81
2023/01/05 02:08:30;;;;;;;22.37;14.33;;;;;;;5.58;100.00;100552.03;1494708;86;21293;-80
2023/01/05 02:11:26;;;;;;;24.00;15.70;;;;;;;5.59;100.00;100553.25;1505916;86;22291;-82
2023/01/05 02:14:18;;;;;;;23.83;15.03;;;;;;;5.61;100.00;100539.99;1500259;86;21397;-81
2023/01/05 02:17:17;;;;;;;21.50;14.30;;;;;;;5.61;100.00;100555.74;1492484;86;21286;-80
2023/01/05 02:20:23;;;;;;;26.63;15.27;;;;;;;5.60;100.00;100561.48;1489720;87;21493;-83
2023/01/05 02:23:20;;;;;;;22.20;14.97;;;;;;;5.56;100.00;100535.09;1506751;86;21359;-84
2023/01/05 02:26:41;;;;;;;25.10;16.40;;;;;;;5.48;100.00;100539.23;1504677;86;21397;-82
2023/01/05 02:30:04;;;;;;;20.82;14.38;;;;;;;5.42;100.00;100516.41;1492264;86;21294;-81
2023/01/05 02:33:00;;;;;;;25.00;17.33;;;;;;;5.37;100.00;100501.47;1491791;86;22535;-82
2023/01/05 02:35:43;;;;;;;22.83;13.77;;;;;;;5.33;100.00;100483.45;1497189;86;21433;-82
2023/01/05 02:38:24;;;;;;;20.93;13.77;;;;;;;5.34;100.00;100479.39;1500619;85;21382;-82
2023/01/05 02:40:55;;;;;;;22.80;14.90;;;;;;;5.34;100.00;100494.91;1500270;86;22430;-81
2023/01/05 02:43:22;;;;;;;29.23;15.27;;;;;;;5.37;100.00;100494.91;1515779;85;22248;-82
2023/01/05 02:45:49;;;;;;;22.87;14.37;;;;;;;5.40;100.00;100489.91;1526243;85;21352;-81
2023/01/05 02:48:15;;;;;;;25.83;15.93;;;;;;;5.39;100.00;100481.20;1517509;85;21403;-82
2023/01/05 02:50:49;;;;;;;18.03;13.43;;;;;;;5.40;100.00;100498.62;1526692;85;22438;-80
2023/01/05 02:53:23;;;;;;;26.10;17.87;;;;;;;5.40;100.00;100486.80;1515086;85;22320;-80
2023/01/05 02:55:55;;;;;;;26.53;16.00;;;;;;;5.37;100.00;100497.53;1523246;85;21411;-82
2023/01/05 02:58:27;;;;;;;23.00;15.77;;;;;;;5.37;100.00;100479.64;1525689;85;21418;-81
2023/01/05 03:01:01;;;;;;;26.73;15.73;;;;;;;5.34;100.00;100484.64;1517994;85;21521;-79
2023/01/05 03:03:38;;;;;;;24.87;15.10;;;;;;;5.33;100.00;100480.35;1521744;85;21433;-80
2023/01/05 03:06:16;;;;;;;23.30;16.67;;;;;;;5.33;100.00;100467.23;1518415;85;21374;-80
2023/01/05 03:08:59;;;;;;;26.90;17.13;;;;;;;5.32;100.00;100468.19;1522341;85;21545;-80
2023/01/05 03:14:53;;;;;;;31.27;17.47;;;;;;;5.35;100.00;100466.65;1525751;85;22254;-80
2023/01/05 03:17:27;;;;;;;22.33;16.40;;;;;;;5.33;100.00;100468.54;1532886;85;21441;-80
2023/01/05 03:19:55;;;;;;;25.47;16.97;;;;;;;5.35;100.00;100461.40;1524093;85;21455;-79
2023/01/05 03:37:02;;;;;;;29.63;18.53;;;;;;;5.25;100.00;100409.22;1504234;85;22299;-80
2023/01/05 03:39:31;;;;;;;26.43;17.57;;;;;;;5.25;100.00;100407.08;1511905;84;21499;-81
2023/01/05 03:41:59;;;;;;;30.47;18.57;;;;;;;5.24;100.00;100407.55;1523185;85;22246;-79
2023/01/05 03:44:25;;;;;;;30.47;20.50;;;;;;;5.27;100.00;100397.31;1517965;85;21344;-84
2023/01/05 03:46:52;;;;;;;34.93;20.93;;;;;;;5.30;100.00;100386.58;1528200;85;22431;-84
2023/01/05 03:49:18;;;;;;;27.03;17.27;;;;;;;5.27;100.00;100384.19;1502358;85;22201;-80
2023/01/05 03:51:44;;;;;;;35.03;21.03;;;;;;;5.32;100.00;100391.22;1519620;85;21489;-83
2023/01/05 03:54:10;;;;;;;38.77;24.50;;;;;;;5.29;100.00;100371.77;1516363;85;21396;-84
2023/01/05 03:56:37;;;;;;;34.87;22.33;;;;;;;5.29;100.00;100388.34;1502584;85;21396;-86
2023/01/05 03:59:03;;;;;;;28.83;21.33;;;;;;;5.28;100.00;100385.37;1518126;85;21588;-83
2023/01/05 04:01:29;;;;;;;34.27;20.60;;;;;;;5.33;100.00;100388.98;1508354;85;22254;-84
2023/01/05 04:03:55;;;;;;;34.03;22.20;;;;;;;5.35;100.00;100387.91;1510268;85;22275;-83
2023/01/05 04:06:21;;;;;;;36.23;20.03;;;;;;;5.35;100.00;100399.72;1517762;85;21433;-83
2023/01/05 04:08:48;;;;;;;31.97;20.47;;;;;;;5.38;100.00;100390.30;1519974;85;21530;-82
2023/01/05 04:11:18;;;;;;;31.60;19.97;;;;;;;5.39;100.00;100394.59;1516836;85;21433;-81
2023/01/05 04:13:44;;;;;;;33.35;20.75;;;;;;;5.45;100.00;100402.48;1532847;85;21511;-82
2023/01/05 04:16:14;;;;;;;31.30;20.80;;;;;;;5.40;100.00;100401.50;1521804;85;21338;-79
2023/01/05 04:18:41;;;;;;;37.47;23.07;;;;;;;5.36;100.00;100384.33;1517748;85;21352;-81
2023/01/05 04:21:07;;;;;;;35.50;22.10;;;;;;;5.34;100.00;100378.34;1525333;85;21536;-86
2023/01/05 04:23:34;;;;;;;35.97;21.30;;;;;;;5.33;100.00;100363.56;1519703;85;22195;-83
2023/01/05 04:26:01;;;;;;;34.40;22.57;;;;;;;5.32;100.00;100369.77;1520425;85;21569;-83
2023/01/05 04:28:27;;;;;;;41.60;23.00;;;;;;;5.29;100.00;100366.52;1519574;85;21410;-84
2023/01/05 04:30:55;;;;;;;32.90;19.53;;;;;;;5.26;100.00;100362.33;1532650;85;21440;-81
2023/01/05 04:33:24;;;;;;;31.07;20.20;;;;;;;5.27;100.00;100353.53;1522024;84;22876;-80
2023/01/05 04:35:50;;;;;;;27.07;17.00;;;;;;;5.26;100.00;100345.76;1520499;85;21345;-83
2023/01/05 04:38:17;;;;;;;27.37;18.07;;;;;;;5.25;100.00;100354.11;1527193;85;22247;-83
2023/01/05 04:40:49;;;;;;;29.57;19.87;;;;;;;5.31;100.00;100358.06;1518203;85;21515;-83
2023/01/05 04:43:16;;;;;;;29.80;18.90;;;;;;;5.31;100.00;100349.70;1511908;85;21544;-81
2023/01/05 04:45:47;;;;;;;30.00;19.13;;;;;;;5.34;100.00;100354.72;1503171;85;22342;-82
2023/01/05 04:48:15;;;;;;;;;;;;;;;5.36;100.00;100338.39;1512322;85;21508;-83
2023/01/05 04:50:41;;;;;;;30.03;19.60;;;;;;;5.39;100.00;100347.34;1510667;86;20316;-83
2023/01/05 04:53:08;;;;;;;27.50;18.80;;;;;;;5.41;100.00;100351.19;1511946;86;21300;-80
2023/01/05 04:55:34;;;;;;;30.97;19.20;;;;;;;5.41;100.00;100353.33;1504838;86;21441;-82
2023/01/05 04:58:01;;;;;;;31.57;19.83;;;;;;;5.41;100.00;100345.45;1487477;86;22305;-81
2023/01/05 05:00:29;;;;;;;27.93;17.70;;;;;;;5.41;100.00;100350.70;1504184;85;21337;-81
2023/01/05 05:02:55;;;;;;;28.60;18.17;;;;;;;5.42;100.00;100335.78;1517606;85;21439;-80
2023/01/05 05:05:21;;;;;;;32.07;19.73;;;;;;;5.33;100.00;100321.57;1518412;85;21425;-80
2023/01/05 05:07:47;;;;;;;30.07;17.90;;;;;;;5.35;100.00;100317.05;1509819;86;21278;-81
2023/01/05 05:10:16;;;;;;;31.40;19.77;;;;;;;5.35;100.00;100309.62;1501495;85;21368;-80
2023/01/05 05:12:42;;;;;;;30.93;20.33;;;;;;;5.35;100.00;100307.86;1512168;86;21417;-81
2023/01/05 05:15:10;;;;;;;28.60;18.60;;;;;;;5.32;100.00;100308.10;1461146;86;21499;-83
2023/01/05 05:17:36;;;;;;;29.33;19.70;;;;;;;5.33;100.00;100310.24;1509871;86;21418;-82
2023/01/05 05:20:04;;;;;;;33.77;19.87;;;;;;;5.30;100.00;100294.25;1503193;86;21403;-81
2023/01/05 05:22:31;;;;;;;33.43;21.43;;;;;;;5.28;100.00;100290.90;1502484;85;21352;-83
2023/01/05 05:24:57;;;;;;;28.83;20.33;;;;;;;5.25;100.00;100278.50;1496535;86;21432;-83
2023/01/05 05:27:23;;;;;;;31.23;21.17;;;;;;;5.29;100.00;100282.06;1509023;85;21514;-81
2023/01/05 05:29:49;;;;;;;32.40;21.00;;;;;;;5.29;100.00;100274.67;1506975;86;21390;-83
2023/01/05 05:32:16;;;;;;;25.90;18.13;;;;;;;5.27;100.00;100300.22;1515782;85;22290;-85
2023/01/05 05:34:42;;;;;;;31.53;21.40;;;;;;;5.30;100.00;100302.61;1503899;86;21507;-85
2023/01/05 05:37:08;;;;;;;33.57;18.60;;;;;;;5.31;100.00;100307.72;1501471;85;21359;-83
2023/01/05 05:39:34;;;;;;;25.90;18.03;;;;;;;5.34;100.00;100319.30;1514746;85;21552;-86
2023/01/05 05:42:00;;;;;;;29.10;20.83;;;;;;;5.37;100.00;100319.06;1526990;85;21462;-86
2023/01/05 05:44:26;;;;;;;29.43;19.73;;;;;;;5.38;100.00;100297.13;1520368;85;21492;-84
2023/01/05 05:46:52;;;;;;;33.63;21.10;;;;;;;5.37;100.00;100278.86;1528922;85;21324;-85
2023/01/05 05:49:19;;;;;;;31.70;18.37;;;;;;;5.35;100.00;100277.69;1523931;85;22475;-84
2023/01/05 05:51:45;;;;;;;32.33;21.80;;;;;;;5.35;100.00;100279.00;1524228;85;21425;-83
2023/01/05 05:54:11;;;;;;;32.23;20.90;;;;;;;5.39;100.00;100300.10;1522261;85;21396;-85
2023/01/05 05:56:37;;;;;;;32.67;20.97;;;;;;;5.40;100.00;100297.83;1508201;85;21351;-82
2023/01/05 05:59:03;;;;;;;30.90;20.10;;;;;;;5.39;100.00;100299.27;1525371;85;21582;-87
2023/01/05 06:01:30;;;;;;;30.97;20.80;;;;;;;5.41;100.00;100291.64;1523031;85;22107;-83
2023/01/05 06:03:56;;;;;;;32.57;21.00;;;;;;;5.40;100.00;100296.52;1519494;85;21411;-83
2023/01/05 06:06:22;;;;;;;30.10;19.67;;;;;;;5.38;100.00;100289.26;1520563;85;22305;-84
2023/01/05 06:08:50;;;;;;;31.80;21.87;;;;;;;5.38;100.00;100307.63;1529350;85;22239;-83
2023/01/05 06:11:16;;;;;;;31.27;20.43;;;;;;;5.37;100.00;100282.80;1520043;85;21500;-84
2023/01/05 06:13:42;;;;;;;27.57;18.37;;;;;;;5.38;100.00;100286.63;1525451;85;21323;-86
2023/01/05 06:16:09;;;;;;;32.77;20.00;;;;;;;5.40;100.00;100283.39;1522089;85;21485;-85
2023/01/05 06:18:35;;;;;;;29.90;20.43;;;;;;;5.43;100.00;100290.20;1513732;85;21373;-84
2023/01/05 06:21:01;;;;;;;28.17;18.43;;;;;;;5.46;100.00;100271.59;1520205;85;22468;-86
2023/01/05 06:23:28;;;;;;;27.33;18.97;;;;;;;5.47;100.00;100269.34;1520265;85;21323;-84
2023/01/05 06:25:54;;;;;;;29.80;20.47;;;;;;;5.49;100.00;100260.84;1518258;85;21483;-83
2023/01/05 06:28:20;;;;;;;36.87;20.60;;;;;;;5.50;100.00;100251.20;1527153;85;21382;-85
2023/01/05 06:30:48;;;;;;;35.87;20.73;;;;;;;5.51;100.00;100268.13;1522432;85;22246;-82
2023/01/05 06:33:14;;;;;;;27.87;18.13;;;;;;;5.54;100.00;100252.62;1522474;85;21359;-86
2023/01/05 06:35:40;;;;;;;28.67;19.17;;;;;;;5.54;100.00;100263.13;1515963;85;22519;-82
2023/01/05 06:38:07;;;;;;;26.23;19.43;;;;;;;5.53;100.00;100270.66;1522808;85;21514;-82
2023/01/05 06:40:33;;;;;;;28.47;18.03;;;;;;;5.55;100.00;100259.53;1516335;85;21396;-83
2023/01/05 06:42:59;;;;;;;28.47;20.03;;;;;;;5.58;100.00;100268.48;1507271;85;21903;-83
2023/01/05 06:45:25;;;;;;;29.80;20.37;;;;;;;5.59;100.00;100257.87;1489356;86;21447;-83
2023/01/05 06:47:51;;;;;;;32.47;20.53;;;;;;;5.62;100.00;100250.24;1509056;85;21495;-79
2023/01/05 06:50:17;;;;;;;23.23;14.70;;;;;;;5.62;100.00;100240.57;1509033;85;21382;-81
2023/01/05 06:52:44;;;;;;;32.10;20.13;;;;;;;5.55;100.00;100255.59;1510099;85;22623;-83
2023/01/05 06:55:11;;;;;;;28.47;19.83;;;;;;;5.63;100.00;100256.67;1506526;86;21300;-82
2023/01/05 06:57:38;;;;;;;27.40;18.20;;;;;;;5.65;100.00;100253.45;1509156;85;21530;-83
2023/01/05 07:00:09;;;;;;;32.23;20.00;;;;;;;5.64;100.00;100243.92;1505457;85;21476;-83
2023/01/05 07:02:35;;;;;;;32.05;22.05;;;;;;;5.67;100.00;100234.97;1507294;85;21344;-85
2023/01/05 07:05:01;;;;;;;27.23;18.40;;;;;;;5.67;100.00;100221.84;1506210;85;21689;-84
2023/01/05 07:07:28;;;;;;;28.90;17.57;;;;;;;5.68;100.00;100209.06;1516129;85;21234;-86
2023/01/05 07:09:54;;;;;;;28.13;19.53;;;;;;;5.69;100.00;100222.53;1506289;86;21374;-82
2023/01/05 07:12:21;;;;;;;28.23;19.67;;;;;;;5.71;100.00;100201.42;1496450;86;21381;-85
2023/01/05 07:14:47;;;;;;;28.10;17.83;;;;;;;5.74;100.00;100190.19;1509884;85;22387;-82
2023/01/05 07:17:13;;;;;;;29.87;19.17;;;;;;;5.75;100.00;100185.28;1508047;85;21433;-80
2023/01/05 07:19:39;;;;;;;27.70;18.23;;;;;;;5.77;100.00;100178.61;1501651;86;21551;-83
2023/01/05 07:22:06;;;;;;;29.30;20.37;;;;;;;5.76;100.00;100167.27;1504141;85;21329;-85
2023/01/05 07:24:32;;;;;;;26.57;17.37;;;;;;;5.73;100.00;100175.88;1506256;85;23014;-84
2023/01/05 07:26:59;;;;;;;33.93;24.00;;;;;;;5.71;100.00;100186.98;1507042;85;22290;-85
2023/01/05 07:29:26;;;;;;;30.60;21.97;;;;;;;5.71;100.00;100170.73;1507378;85;21545;-84
2023/01/05 07:31:52;;;;;;;30.23;20.23;;;;;;;5.72;100.00;100178.96;1509455;85;21359;-83
2023/01/05 07:34:22;;;;;;;32.20;21.33;;;;;;;5.68;100.00;100181.48;1492715;86;21596;-83
2023/01/05 07:36:49;;;;;;;34.67;20.65;;;;;;;5.66;100.00;100193.89;1507079;85;22254;-83
2023/01/05 07:39:16;;;;;;;31.73;20.67;;;;;;;5.64;100.00;100194.03;1504761;86;21503;-83
2023/01/05 07:41:43;;;;;;;32.70;21.47;;;;;;;5.66;100.00;100175.03;1517674;84;21404;-81
2023/01/05 07:44:09;;;;;;;33.53;21.50;;;;;;;5.61;100.00;100178.98;1518937;85;21471;-82
2023/01/05 07:46:36;;;;;;;31.97;22.80;;;;;;;5.65;100.00;100197.48;1528340;85;21847;-86
2023/01/05 07:49:03;;;;;;;31.03;21.27;;;;;;;5.65;100.00;100185.67;1520945;85;21350;-83
2023/01/05 07:51:29;;;;;;;35.53;22.90;;;;;;;5.66;100.00;100192.58;1523195;85;21315;-82
2023/01/05 07:53:55;;;;;;;32.97;23.43;;;;;;;5.70;100.00;100197.97;1519384;85;21632;-83
2023/01/05 07:56:22;;;;;;;28.90;20.43;;;;;;;5.79;100.00;100178.02;1517407;85;22371;-80
2023/01/05 07:58:50;;;;;;;28.33;19.87;;;;;;;5.80;100.00;100172.63;1529745;85;22312;-83
2023/01/05 08:01:17;;;;;;;30.23;20.87;;;;;;;5.86;100.00;100171.30;1516854;85;21653;-81
2023/01/05 08:03:45;;;;;;;34.43;20.83;;;;;;;5.94;100.00;100151.02;1529566;85;22287;-81
2023/01/05 08:06:16;;;;;;;32.80;24.17;;;;;;;5.95;100.00;100148.73;1516983;85;21381;-81
2023/01/05 08:08:42;;;;;;;36.33;21.43;;;;;;;5.91;100.00;100156.00;1523702;85;21447;-80
2023/01/05 08:11:14;;;;;;;32.20;20.70;;;;;;;5.92;100.00;100148.95;1522879;85;21595;-79
2023/01/05 08:13:59;;;;;;;31.00;22.35;;;;;;;5.88;100.00;100152.31;1518282;85;21491;-81
2023/01/05 08:16:27;;;;;;;26.70;18.30;;;;;;;5.86;100.00;100157.67;1509873;85;21314;-79
2023/01/05 08:18:53;;;;;;;30.97;20.37;;;;;;;5.87;100.00;100149.34;1524374;85;21507;-80
2023/01/05 08:21:19;;;;;;;25.63;18.97;;;;;;;5.89;100.00;100166.62;1520614;85;21433;-80
2023/01/05 08:23:45;;;;;;;40.17;22.30;;;;;;;5.91;100.00;100155.17;1517223;85;21285;-80
2023/01/05 08:26:19;;;;;;;43.37;23.57;;;;;;;5.93;100.00;100147.98;1529531;85;21433;-80
2023/01/05 08:28:45;;;;;;;29.57;20.60;;;;;;;5.94;100.00;100143.97;1527083;85;21345;-80
2023/01/05 08:31:16;;;;;;;37.90;22.67;;;;;;;5.92;100.00;100138.45;1519329;85;21344;-80
2023/01/05 08:33:45;;;;;;;30.93;21.10;;;;;;;5.97;100.00;100140.26;1515468;85;21433;-81
2023/01/05 08:36:18;;;;;;;31.20;21.83;;;;;;;5.95;100.00;100131.66;1519349;85;21544;-80
2023/01/05 08:38:49;;;;;;;27.37;17.23;;;;;;;6.01;100.00;100132.47;1519535;85;21440;-80
2023/01/05 08:41:20;;;;;;;27.20;17.52;;;;;;;6.09;100.00;100123.00;1513083;85;21625;-79
2023/01/05 08:48:27;;;;;;;26.17;17.67;;;;;;;6.23;100.00;100121.04;1595811;86;21331;-79
2023/01/05 08:50:53;;;;;;;27.90;19.10;;;;;;;6.25;100.00;100131.78;1428408;85;21242;-80
2023/01/05 08:53:19;;;;;;;24.40;16.53;;;;;;;6.29;100.00;100105.58;1433728;85;21378;-76
2023/01/05 08:55:45;;;;;;;32.27;19.40;;;;;;;6.29;100.00;100129.23;1595795;85;21217;-79
2023/01/05 08:58:12;;;;;;;29.43;17.77;;;;;;;6.29;100.00;100118.72;1572109;86;21273;-80
2023/01/05 09:00:38;;;;;;;23.97;15.17;;;;;;;6.38;100.00;100124.18;1428074;85;21190;-79
2023/01/05 09:03:05;;;;;;;27.77;15.87;;;;;;;6.43;100.00;100128.58;1427608;85;21234;-80
2023/01/05 09:05:31;;;;;;;23.90;17.03;;;;;;;6.43;100.00;100117.58;1427169;85;21367;-79
2023/01/05 09:07:57;;;;;;;30.23;16.73;;;;;;;6.46;100.00;100118.64;1427791;85;21220;-78
2023/01/05 09:10:23;;;;;;;26.57;16.53;;;;;;;6.49;100.00;100111.80;1428046;85;21375;-78
2023/01/05 09:12:50;;;;;;;24.43;17.50;;;;;;;6.50;100.00;100112.17;1427848;85;22026;-78
2023/01/05 09:15:16;;;;;;;25.53;17.13;;;;;;;6.52;100.00;100112.03;1434860;85;21241;-79
2023/01/05 09:17:42;;;;;;;22.43;17.07;;;;;;;6.52;100.00;100102.34;1507153;85;21323;-80
2023/01/05 09:20:09;;;;;;;26.93;17.60;;;;;;;6.55;100.00;100094.67;1427922;86;22201;-79
2023/01/05 09:22:35;;;;;;;26.70;18.20;;;;;;;6.58;100.00;100095.73;1427384;86;21234;-79
2023/01/05 09:25:03;;;;;;;28.43;18.83;;;;;;;6.54;100.00;100084.64;1430090;85;21455;-90
2023/01/05 09:27:30;;;;;;;26.77;19.30;;;;;;;6.52;100.00;100087.05;1486851;86;22261;-85
2023/01/05 09:29:56;;;;;;;25.37;18.30;;;;;;;6.51;100.00;100072.25;1505157;86;21522;-83
2023/01/05 09:32:23;;;;;;;23.37;17.73;;;;;;;6.48;100.00;100077.28;1508069;86;21366;-84
2023/01/05 09:34:49;;;;;;;23.57;16.30;;;;;;;6.48;100.00;100075.14;1506719;85;21359;-84
2023/01/05 09:37:15;;;;;;;26.37;16.40;;;;;;;6.51;100.00;100074.39;1507267;85;21350;-84
2023/01/05 09:39:42;;;;;;;22.07;15.40;;;;;;;6.56;100.00;100072.70;1509055;85;22284;-83
2023/01/05 09:42:13;;;;;;;30.73;18.07;;;;;;;6.57;100.00;100082.24;1517358;85;21697;-82
2023/01/05 09:44:50;;;;;;;25.23;16.17;;;;;;;6.58;100.00;100074.70;1520813;85;21344;-81
2023/01/05 09:47:41;;;;;;;27.10;18.30;;;;;;;6.64;100.00;100085.17;1526102;85;21470;-82
2023/01/05 09:50:20;;;;;;;;;;;;;;;6.64;100.00;100085.17;1523470;85;21389;-81
2023/01/05 09:52:49;;;;;;;25.00;16.63;;;;;;;6.65;100.00;100090.31;1524400;85;20368;-79
2023/01/05 09:55:18;;;;;;;24.57;17.13;;;;;;;6.65;100.00;100066.65;1513537;85;21381;-79
2023/01/05 09:58:02;;;;;;;26.00;17.17;;;;;;;6.65;100.00;100079.80;1527097;85;21388;-79
2023/01/05 10:00:28;;;;;;;26.70;17.17;;;;;;;6.68;100.00;100065.08;1518379;85;21418;-80
2023/01/05 10:03:00;;;;;;;26.67;19.77;;;;;;;6.68;100.00;100041.41;1522257;85;21507;-79
2023/01/05 10:05:28;;;;;;;26.77;18.37;;;;;;;6.66;100.00;100035.92;1514815;85;21611;-80
2023/01/05 10:08:24;;;;;;;28.53;18.93;;;;;;;6.68;100.00;100047.15;1514135;85;21632;-92
2023/01/05 10:14:11;;;;;;;23.47;16.80;;;;;;;6.62;100.00;100032.73;1520588;85;21503;-88
2023/01/05 10:16:40;;;;;;;35.13;21.80;;;;;;;6.66;100.00;100039.86;1518389;85;21411;-91
2023/01/05 10:19:14;;;;;;;28.90;19.77;;;;;;;6.62;100.00;100028.78;1523698;85;21285;-92
2023/01/05 10:21:51;;;;;;;27.93;19.73;;;;;;;6.61;100.00;100008.69;1499133;85;22305;-91
2023/01/05 10:24:38;;;;;;;30.43;19.63;;;;;;;6.60;100.00;100001.78;1459298;89;21374;-87
2023/01/05 10:27:12;;;;;;;31.20;20.73;;;;;;;6.62;100.00;100003.80;1455258;89;22335;-90
2023/01/05 10:29:48;;;;;;;30.17;20.20;;;;;;;6.61;100.00;100004.75;1436180;89;21492;-90
2023/01/05 10:32:20;;;;;;;32.60;19.87;;;;;;;6.58;100.00;100005.02;1464082;89;22189;-91
2023/01/05 10:35:06;;;;;;;33.33;19.60;;;;;;;6.59;100.00;99988.30;1461279;89;21544;-90
2023/01/05 10:37:55;;;;;;;34.07;21.37;;;;;;;6.62;100.00;99977.51;1433731;89;21811;-88
2023/01/05 10:40:35;;;;;;;33.20;22.00;;;;;;;6.60;100.00;99979.43;1441820;89;22313;-90
2023/01/05 10:43:39;;;;;;;26.95;19.75;;;;;;;6.62;100.00;99977.51;1428323;90;21559;-88
2023/01/05 10:46:11;;;;;;;33.70;20.67;;;;;;;6.62;100.00;99973.56;1410820;92;21573;-90
2023/01/05 10:48:38;;;;;;;36.43;22.03;;;;;;;6.68;100.00;99976.97;1442233;90;21545;-89
2023/01/05 10:51:05;;;;;;;34.63;20.70;;;;;;;6.67;100.00;99980.55;1446353;90;22300;-91
2023/01/05 10:53:37;;;;;;;34.30;21.10;;;;;;;6.70;100.00;99976.82;1436590;90;21740;-88
2023/01/05 10:56:17;;;;;;;30.50;19.30;;;;;;;6.70;100.00;99971.11;1444673;90;21434;-88
2023/01/05 10:58:45;;;;;;;25.63;17.67;;;;;;;6.72;100.00;99962.58;1446930;90;21650;-91
2023/01/05 11:01:26;;;;;;;31.00;20.07;;;;;;;6.70;100.00;99972.42;1459713;86;21448;-91
2023/01/05 11:03:57;;;;;;;27.98;18.02;;;;;;;6.72;100.00;99961.27;1504907;85;21515;-91
2023/01/05 11:06:29;;;;;;;;;;;;;;;6.77;100.00;99944.60;1511942;86;22297;-91
2023/01/05 11:09:12;;;;;;;30.60;17.30;;;;;;;6.75;100.00;99935.17;1502446;85;20256;-91
2023/01/05 11:11:39;;;;;;;28.30;17.73;;;;;;;6.74;100.00;99944.88;1501409;86;21433;-88
2023/01/05 11:14:07;;;;;;;33.37;19.63;;;;;;;6.72;100.00;99954.69;1502816;85;22306;-90
2023/01/05 11:16:37;;;;;;;25.83;17.67;;;;;;;6.75;100.00;99937.31;1489310;86;21373;-93
2023/01/05 11:19:14;;;;;;;27.93;19.30;;;;;;;6.77;100.00;99947.23;1511103;85;21343;-90
2023/01/05 11:21:44;;;;;;;32.57;20.90;;;;;;;6.76;100.00;99944.72;1508366;85;21470;-91
2023/01/05 11:24:30;;;;;;;31.23;19.70;;;;;;;6.73;100.00;99945.84;1503400;85;21411;-91
2023/01/05 11:27:02;;;;;;;30.93;20.37;;;;;;;6.80;100.00;99965.03;1504493;85;22283;-91
2023/01/05 11:29:29;;;;;;;28.03;20.23;;;;;;;6.80;100.00;99966.34;1514330;86;21426;-92
2023/01/05 11:32:04;;;;;;;29.47;20.33;;;;;;;6.83;100.00;99966.08;1491928;86;21381;-92
2023/01/05 11:34:46;;;;;;;29.93;17.97;;;;;;;6.83;100.00;99964.77;1499982;85;22644;-92
2023/01/05 11:37:25;;;;;;;27.93;18.40;;;;;;;6.86;100.00;99965.80;1509544;85;21271;-91
2023/01/05 11:40:00;;;;;;;28.37;20.17;;;;;;;6.85;100.00;99957.55;1486762;86;21507;-93
2023/01/05 11:42:33;;;;;;;35.27;21.87;;;;;;;6.78;100.00;99952.83;1519993;85;21507;-87
2023/01/05 11:45:03;;;;;;;29.27;17.73;;;;;;;6.81;100.00;99939.06;1512821;85;21544;-90
2023/01/05 11:47:37;;;;;;;26.05;19.20;;;;;;;6.82;100.00;99923.63;1501777;85;21440;-94
2023/01/05 11:50:23;;;;;;;32.83;20.93;;;;;;;6.83;100.00;99920.05;1518175;85;21537;-91
2023/01/05 11:52:53;;;;;;;29.93;19.57;;;;;;;6.83;100.00;99919.56;1520753;85;22425;-91
2023/01/05 11:55:30;;;;;;;29.73;20.60;;;;;;;6.84;100.00;99912.48;1518008;85;21365;-93
2023/01/05 11:58:20;;;;;;;25.30;17.77;;;;;;;6.88;100.00;99904.69;1522669;85;21425;-92
2023/01/05 12:01:38;;;;;;;30.57;20.55;;;;;;;6.88;100.00;99910.78;1483115;87;21590;-94
2023/01/05 12:04:25;;;;;;;28.50;19.73;;;;;;;6.93;100.00;99902.00;1517007;85;21360;-92
2023/01/05 12:07:02;;;;;;;26.07;16.83;;;;;;;6.95;100.00;99905.80;1445962;90;21523;-91